Time;durP1;ratioP1;P1;durP2;ratioP2;P2;SDS_P1;SDS_P2;PMS_P1;PMS_P2;Temp;Humidity;BMP_temperature;BMP_pressure;BME280_temperature;BME280_humidity;BME280_pressure;Samples;Min_cycle;Max_cycle;Signal;HPM_P1;HPM_P2
2023/01/17 00:01:08;;;;;;;5.63;5.03;;;6.40;99.90;;;;;;4928939;29;20196;-78
2023/01/17 00:09:51;;;;;;;5.87;5.10;;;6.40;99.90;;;;;;4921878;29;20200;-78
2023/01/17 00:12:06;;;;;;;5.83;5.33;;;6.40;99.90;;;;;;4880159;29;20443;-77
2023/01/17 00:14:32;;;;;;;5.70;4.60;;;6.40;99.90;;;;;;4921724;29;20484;-78
2023/01/17 00:17:00;;;;;;;5.57;5.17;;;6.30;99.90;;;;;;4914293;29;20447;-74
2023/01/17 05:30:39;;;;;;;9.00;4.90;;;4.50;99.90;;;;;;6017994;23;20489;-72
2023/01/17 05:33:05;;;;;;;5.97;4.77;;;4.40;99.90;;;;;;4897411;29;20532;-73
2023/01/17 05:35:31;;;;;;;6.57;5.10;;;4.50;99.90;;;;;;4897662;29;20839;-76
2023/01/17 05:37:57;;;;;;;6.30;5.37;;;4.50;99.90;;;;;;4897709;29;20679;-76
2023/01/17 05:40:25;;;;;;;13.03;7.07;;;4.50;99.90;;;;;;4899430;29;20475;-69
2023/01/17 05:42:53;;;;;;;10.13;6.63;;;4.50;99.90;;;;;;4901916;29;20246;-70
2023/01/17 05:45:20;;;;;;;11.80;6.73;;;4.50;99.90;;;;;;4906827;29;20443;-69
2023/01/17 05:47:48;;;;;;;8.60;6.23;;;4.50;99.90;;;;;;4898595;29;20559;-70
2023/01/17 05:50:23;;;;;;;12.57;7.07;;;4.50;99.90;;;;;;4883910;29;20453;-69
2023/01/17 05:52:59;;;;;;;7.17;6.20;;;4.50;99.90;;;;;;4883995;29;20449;-71
2023/01/17 05:55:27;;;;;;;14.50;7.03;;;4.60;99.90;;;;;;4883339;29;20769;-72
2023/01/17 05:57:53;;;;;;;13.10;5.87;;;4.50;99.90;;;;;;4879282;29;20451;-71
2023/01/17 06:00:19;;;;;;;9.57;5.53;;;4.70;99.90;;;;;;4891797;29;20440;-70
2023/01/17 06:02:45;;;;;;;10.03;6.33;;;4.70;99.90;;;;;;4900289;29;20492;-68
2023/01/17 06:05:12;;;;;;;7.93;5.73;;;4.60;99.90;;;;;;4900228;29;20536;-69
2023/01/17 06:07:38;;;;;;;7.40;5.30;;;4.70;99.90;;;;;;4883203;29;20199;-68
2023/01/17 06:10:04;;;;;;;8.07;6.20;;;4.60;99.90;;;;;;4906957;29;20443;-69
2023/01/17 06:12:29;;;;;;;7.90;5.70;;;4.60;99.90;;;;;;4908236;29;20176;-68
2023/01/17 06:14:55;;;;;;;12.30;5.90;;;4.60;99.90;;;;;;4910955;29;20484;-69
2023/01/17 06:17:20;;;;;;;10.20;5.60;;;4.60;99.90;;;;;;4909705;29;20234;-69
2023/01/17 06:19:46;;;;;;;8.97;5.37;;;4.60;99.90;;;;;;4908018;29;20191;-68
2023/01/17 06:22:12;;;;;;;7.30;5.87;;;4.60;99.90;;;;;;4907843;29;20251;-68
2023/01/17 06:24:37;;;;;;;10.90;6.17;;;4.50;99.90;;;;;;4906319;29;20192;-68
2023/01/17 06:27:03;;;;;;;8.43;5.60;;;4.50;99.90;;;;;;4904098;29;20203;-69
2023/01/17 06:29:28;;;;;;;10.33;5.40;;;4.50;99.90;;;;;;4903855;29;20198;-69
2023/01/17 06:31:54;;;;;;;8.93;5.37;;;4.50;99.90;;;;;;4901359;29;20295;-69
2023/01/17 06:34:19;;;;;;;9.63;5.80;;;4.40;99.90;;;;;;4901364;29;20232;-69
2023/01/17 06:36:45;;;;;;;9.50;5.43;;;4.40;99.90;;;;;;4903546;29;20196;-69
2023/01/17 06:39:10;;;;;;;9.70;5.43;;;4.50;99.90;;;;;;4905502;29;20183;-69
2023/01/17 06:41:36;;;;;;;7.87;5.20;;;4.40;99.90;;;;;;4906777;29;20276;-69
2023/01/17 06:44:01;;;;;;;14.93;5.27;;;4.40;99.90;;;;;;4908404;29;20183;-69
2023/01/17 06:46:27;;;;;;;12.83;5.23;;;4.40;99.90;;;;;;4910296;29;20205;-69
2023/01/17 06:48:52;;;;;;;17.07;6.37;;;4.40;99.90;;;;;;4903918;29;20671;-69
2023/01/17 06:51:18;;;;;;;9.87;4.87;;;4.50;99.90;;;;;;4903879;29;20227;-69
2023/01/17 06:53:44;;;;;;;8.23;5.47;;;4.50;99.90;;;;;;4901773;29;20184;-69
2023/01/17 06:56:09;;;;;;;8.07;5.53;;;4.50;99.90;;;;;;4901374;29;20195;-69
2023/01/17 06:58:35;;;;;;;12.97;5.57;;;4.50;99.90;;;;;;4900629;29;20204;-69
2023/01/17 07:01:08;;;;;;;6.47;5.10;;;4.50;99.90;;;;;;4883746;29;20221;-69
2023/01/17 07:03:34;;;;;;;11.20;6.40;;;4.60;99.90;;;;;;4903534;29;20252;-69
2023/01/17 07:06:01;;;;;;;10.60;5.90;;;4.60;99.90;;;;;;4904020;29;20443;-69
2023/01/17 07:08:27;;;;;;;6.23;5.40;;;4.60;99.90;;;;;;4907059;29;20251;-69
2023/01/17 07:11:00;;;;;;;7.87;5.93;;;4.60;99.90;;;;;;4908850;29;20824;-69
2023/01/17 07:13:27;;;;;;;8.20;6.20;;;4.60;99.90;;;;;;4893365;29;20440;-69
2023/01/17 07:15:53;;;;;;;8.47;5.83;;;4.60;99.90;;;;;;4911813;29;20482;-69
2023/01/17 07:18:22;;;;;;;11.00;7.17;;;4.60;99.90;;;;;;4913533;29;20471;-70
2023/01/17 07:20:48;;;;;;;7.67;5.93;;;4.60;99.90;;;;;;4903017;29;20279;-69
2023/01/17 07:23:13;;;;;;;10.70;7.03;;;4.60;99.90;;;;;;4901528;29;20471;-69
2023/01/17 07:25:39;;;;;;;13.23;6.63;;;4.50;99.90;;;;;;4908755;29;20790;-69
2023/01/17 07:28:04;;;;;;;10.80;7.70;;;4.40;99.90;;;;;;4917196;29;20339;-69
2023/01/17 07:30:30;;;;;;;12.00;6.90;;;4.50;99.90;;;;;;4915162;29;20199;-69
2023/01/17 07:32:56;;;;;;;11.90;6.87;;;4.50;99.90;;;;;;4913782;29;20191;-69
2023/01/17 07:35:25;;;;;;;8.90;5.80;;;4.50;99.90;;;;;;4911909;29;20263;-69
2023/01/17 07:37:51;;;;;;;12.60;8.07;;;4.50;99.90;;;;;;4909633;29;20558;-69
2023/01/17 07:40:18;;;;;;;9.07;6.80;;;4.50;99.90;;;;;;4908734;29;20450;-74
2023/01/17 07:42:45;;;;;;;8.50;6.40;;;4.60;99.90;;;;;;4907279;29;20498;-71
2023/01/17 07:45:11;;;;;;;10.50;8.20;;;4.60;99.90;;;;;;4907773;29;20448;-70
2023/01/17 07:47:37;;;;;;;10.40;7.13;;;4.60;99.90;;;;;;4903676;29;20448;-70
2023/01/17 07:50:04;;;;;;;14.40;8.43;;;4.60;99.90;;;;;;4902290;29;20449;-70
2023/01/17 07:52:29;;;;;;;12.27;8.40;;;4.70;99.90;;;;;;4898643;29;20767;-70
2023/01/17 07:54:55;;;;;;;13.43;8.40;;;4.70;99.90;;;;;;4901540;29;20515;-70
2023/01/17 07:57:21;;;;;;;15.77;8.57;;;4.70;99.90;;;;;;4902127;29;20667;-70
2023/01/17 07:59:46;;;;;;;11.90;8.00;;;4.70;99.90;;;;;;4907274;29;20211;-70
2023/01/17 08:02:19;;;;;;;11.67;7.70;;;4.70;99.90;;;;;;4905918;29;20484;-70
2023/01/17 08:04:45;;;;;;;12.97;8.50;;;4.70;99.90;;;;;;4907404;29;20262;-70
2023/01/17 08:07:12;;;;;;;13.07;8.53;;;4.70;99.90;;;;;;4907526;29;20440;-70
2023/01/17 08:09:42;;;;;;;12.93;9.03;;;4.70;99.90;;;;;;4909367;29;20454;-69
2023/01/17 08:12:07;;;;;;;12.50;9.30;;;4.70;99.90;;;;;;4905608;29;20444;-69
2023/01/17 08:14:33;;;;;;;14.27;9.70;;;4.70;99.90;;;;;;4903995;29;20512;-69
2023/01/17 08:17:06;;;;;;;12.60;8.20;;;4.70;99.90;;;;;;4903460;29;20189;-69
2023/01/17 08:19:32;;;;;;;15.63;8.40;;;4.70;99.90;;;;;;4898407;29;20198;-69
2023/01/17 08:21:57;;;;;;;10.97;8.33;;;4.70;99.90;;;;;;4898425;29;21436;-69
2023/01/17 08:24:23;;;;;;;12.60;8.20;;;4.70;99.90;;;;;;4900722;29;20202;-69
2023/01/17 08:26:48;;;;;;;11.60;8.67;;;4.70;99.90;;;;;;4902017;29;20191;-70
2023/01/17 08:29:14;;;;;;;16.23;8.10;;;4.70;99.90;;;;;;4903889;29;20528;-70
2023/01/17 08:31:39;;;;;;;14.97;8.90;;;4.70;99.90;;;;;;4905523;29;20239;-70
2023/01/17 08:34:05;;;;;;;14.13;9.17;;;4.70;99.90;;;;;;4907144;29;20653;-70
2023/01/17 08:36:30;;;;;;;13.70;8.50;;;4.80;99.90;;;;;;4908860;29;20197;-70
2023/01/17 08:38:56;;;;;;;13.53;8.70;;;4.70;99.90;;;;;;4906077;29;20200;-70
2023/01/17 08:41:23;;;;;;;11.43;8.60;;;4.60;99.90;;;;;;4901815;29;20224;-70
2023/01/17 08:43:50;;;;;;;9.10;7.37;;;4.60;99.90;;;;;;4900318;29;20697;-70
2023/01/17 08:46:17;;;;;;;12.10;8.80;;;4.50;99.90;;;;;;4898611;29;20756;-69
2023/01/17 08:48:43;;;;;;;12.87;8.00;;;4.50;99.90;;;;;;4896519;29;20621;-69
2023/01/17 08:51:09;;;;;;;10.30;7.93;;;4.50;99.90;;;;;;4899770;29;20456;-69
2023/01/17 08:53:34;;;;;;;15.27;8.43;;;4.50;99.90;;;;;;4901485;29;20480;-70
2023/01/17 08:56:01;;;;;;;12.53;8.83;;;4.70;99.90;;;;;;4903444;29;20880;-72
2023/01/17 08:58:28;;;;;;;12.10;8.80;;;4.70;99.90;;;;;;4904956;29;20199;-72
2023/01/17 09:00:57;;;;;;;13.77;9.77;;;4.70;99.90;;;;;;4903838;29;20440;-72
2023/01/17 09:03:23;;;;;;;18.00;9.43;;;4.70;99.90;;;;;;4907981;29;20501;-72
2023/01/17 09:05:48;;;;;;;13.27;9.90;;;4.80;99.90;;;;;;4908170;29;20476;-72
2023/01/17 09:08:14;;;;;;;17.00;10.53;;;4.80;99.90;;;;;;4905683;29;20200;-72
2023/01/17 09:10:39;;;;;;;14.97;10.47;;;4.80;99.90;;;;;;4900002;29;20195;-72
2023/01/17 09:13:05;;;;;;;15.67;10.67;;;4.80;99.90;;;;;;4897962;29;20199;-72
2023/01/17 09:15:31;;;;;;;16.67;10.50;;;4.90;99.90;;;;;;4897636;29;20611;-72
2023/01/17 09:17:57;;;;;;;20.77;10.97;;;4.90;99.90;;;;;;4898822;29;20444;-71
2023/01/17 09:20:23;;;;;;;13.80;10.50;;;5.00;99.90;;;;;;4901908;29;20189;-71
2023/01/17 09:22:50;;;;;;;16.67;9.70;;;4.90;99.90;;;;;;4903640;29;20215;-71
2023/01/17 09:25:15;;;;;;;17.30;11.70;;;4.80;99.90;;;;;;4905975;29;20489;-72
2023/01/17 09:27:45;;;;;;;15.33;11.27;;;4.80;99.90;;;;;;4906810;29;20448;-71
2023/01/17 09:30:11;;;;;;;19.83;12.30;;;4.80;99.90;;;;;;4906220;29;20180;-72
2023/01/17 09:32:37;;;;;;;18.60;12.00;;;4.80;99.90;;;;;;4906466;29;20546;-72
2023/01/17 09:35:04;;;;;;;16.60;11.83;;;4.80;99.90;;;;;;4906232;29;20194;-71
2023/01/17 09:37:29;;;;;;;20.63;11.80;;;4.80;99.90;;;;;;4901166;29;20266;-72
2023/01/17 09:39:55;;;;;;;16.97;12.60;;;4.80;99.90;;;;;;4899530;29;20547;-72
2023/01/17 09:42:34;;;;;;;19.57;12.63;;;4.90;99.90;;;;;;4898908;29;20208;-72
2023/01/17 09:45:00;;;;;;;20.90;12.87;;;4.90;99.90;;;;;;4897329;29;20180;-72
2023/01/17 09:47:34;;;;;;;21.20;12.70;;;5.00;99.90;;;;;;4900451;29;20443;-72
2023/01/17 09:50:14;;;;;;;22.70;11.80;;;4.90;99.90;;;;;;4904248;29;20202;-72
2023/01/17 09:52:40;;;;;;;18.83;12.10;;;4.90;99.90;;;;;;4905637;29;20510;-71
2023/01/17 09:55:11;;;;;;;17.90;12.30;;;4.90;99.90;;;;;;4905564;29;20498;-70
2023/01/17 09:57:50;;;;;;;18.70;10.40;;;4.90;99.90;;;;;;4903812;29;20199;-70
2023/01/17 10:00:44;;;;;;;21.60;10.03;;;5.00;99.90;;;;;;4903780;29;20440;-70
2023/01/17 10:03:45;;;;;;;15.40;9.90;;;5.00;99.90;;;;;;4903147;29;20480;-70
2023/01/17 10:06:43;;;;;;;16.63;11.67;;;5.10;99.90;;;;;;4844205;29;20550;-70
2023/01/17 10:09:17;;;;;;;20.13;11.57;;;5.10;99.90;;;;;;4896279;29;20515;-70
2023/01/17 10:11:51;;;;;;;18.90;9.17;;;5.10;99.90;;;;;;4897370;29;20460;-70
2023/01/17 10:14:33;;;;;;;16.87;10.47;;;5.10;99.90;;;;;;4902652;29;20473;-71
2023/01/17 10:17:30;;;;;;;14.00;10.20;;;5.20;99.90;;;;;;4903906;29;20428;-70
2023/01/17 10:20:13;;;;;;;21.37;11.00;;;5.20;99.90;;;;;;4903186;29;20437;-71
2023/01/17 10:23:07;;;;;;;11.73;9.13;;;5.10;99.90;;;;;;4905109;29;20993;-70
2023/01/17 10:25:53;;;;;;;17.03;7.80;;;5.00;99.90;;;;;;4906460;29;20724;-71
2023/01/17 10:28:27;;;;;;;14.90;8.80;;;5.10;99.90;;;;;;4905244;29;20840;-70
2023/01/17 10:31:23;;;;;;;16.93;8.93;;;5.10;99.90;;;;;;4904897;29;20463;-70
2023/01/17 10:33:55;;;;;;;12.87;9.30;;;5.10;99.90;;;;;;4900369;29;20440;-69
2023/01/17 10:36:26;;;;;;;14.10;9.07;;;5.10;99.90;;;;;;4900282;29;20435;-71
2023/01/17 10:38:59;;;;;;;12.13;8.43;;;5.20;99.90;;;;;;4902684;29;20469;-70
2023/01/17 10:41:42;;;;;;;17.80;9.87;;;5.20;99.90;;;;;;4900268;29;20455;-70
2023/01/17 10:44:33;;;;;;;15.90;9.73;;;5.30;99.90;;;;;;4906742;29;20448;-71
2023/01/17 10:47:19;;;;;;;12.40;8.60;;;5.30;99.90;;;;;;4908748;29;20435;-70
2023/01/17 10:49:53;;;;;;;16.30;9.13;;;5.30;99.90;;;;;;4908578;29;20839;-71
2023/01/17 10:52:42;;;;;;;15.77;9.10;;;5.40;99.90;;;;;;4909536;29;20439;-68
2023/01/17 10:55:29;;;;;;;10.57;8.27;;;5.40;99.90;;;;;;4908998;29;20446;-70
2023/01/17 10:57:56;;;;;;;16.10;9.67;;;5.50;99.90;;;;;;4902825;29;20428;-70
2023/01/17 11:00:48;;;;;;;25.23;10.00;;;5.70;99.90;;;;;;4904611;29;20820;-70
2023/01/17 11:03:16;;;;;;;15.10;9.50;;;5.80;99.90;;;;;;4898668;29;20480;-71
2023/01/17 11:05:43;;;;;;;13.33;8.93;;;6.00;99.90;;;;;;4899679;29;20440;-72
2023/01/17 11:08:13;;;;;;;17.50;9.23;;;6.10;99.90;;;;;;4905460;29;20445;-71
2023/01/17 11:10:39;;;;;;;11.90;8.13;;;6.20;99.90;;;;;;4906975;29;20522;-71
2023/01/17 11:13:29;;;;;;;14.43;9.13;;;6.30;99.90;;;;;;4910161;29;20440;-71
2023/01/17 11:16:02;;;;;;;19.00;10.13;;;6.30;99.90;;;;;;4909106;29;20242;-71
2023/01/17 11:18:32;;;;;;;14.20;9.67;;;6.30;99.90;;;;;;4907768;29;20448;-71
2023/01/17 11:21:22;;;;;;;18.40;8.77;;;6.30;99.90;;;;;;4887953;29;20444;-71
2023/01/17 11:23:50;;;;;;;15.13;8.90;;;6.30;99.90;;;;;;4905923;29;20507;-71
2023/01/17 11:26:28;;;;;;;13.90;8.90;;;6.40;99.90;;;;;;4902607;29;20424;-71
2023/01/17 11:29:27;;;;;;;13.13;7.90;;;6.50;99.90;;;;;;4901099;29;20770;-71
2023/01/17 11:31:55;;;;;;;12.10;7.63;;;6.60;99.90;;;;;;4899115;29;20509;-72
2023/01/17 11:34:26;;;;;;;11.20;7.37;;;6.50;99.90;;;;;;4900541;29;20449;-71
2023/01/17 11:37:18;;;;;;;12.60;8.30;;;6.50;99.90;;;;;;4902416;29;20504;-71
2023/01/17 11:39:46;;;;;;;11.53;7.50;;;6.50;99.90;;;;;;4911665;29;20993;-71
2023/01/17 11:42:32;;;;;;;13.00;8.67;;;6.50;99.90;;;;;;4907806;29;20903;-71
2023/01/17 11:45:33;;;;;;;12.00;7.87;;;6.40;99.90;;;;;;4908528;29;20439;-71
2023/01/17 11:48:06;;;;;;;13.40;8.50;;;6.30;99.90;;;;;;4851547;29;20436;-71
2023/01/17 11:50:33;;;;;;;12.83;7.70;;;6.30;99.90;;;;;;4901816;29;20452;-71
2023/01/17 11:53:11;;;;;;;15.07;7.93;;;6.30;99.90;;;;;;4902403;29;20501;-71
2023/01/17 11:55:37;;;;;;;12.13;6.80;;;6.30;99.90;;;;;;4900508;29;20439;-70
2023/01/17 11:58:02;;;;;;;10.37;6.90;;;6.30;99.90;;;;;;4902757;29;20445;-70
2023/01/17 12:00:44;;;;;;;10.60;7.17;;;6.40;99.90;;;;;;4900409;29;20183;-71
2023/01/17 12:03:19;;;;;;;10.43;6.77;;;6.40;99.90;;;;;;4877852;29;20319;-71
2023/01/17 12:06:14;;;;;;;14.47;7.73;;;6.40;99.90;;;;;;4894661;29;20978;-71
2023/01/17 12:08:58;;;;;;;15.10;7.80;;;6.40;99.90;;;;;;4880979;29;20447;-71
2023/01/17 12:15:04;;;;;;;12.80;7.73;;;6.30;99.90;;;;;;4908491;29;20484;-71
2023/01/17 12:17:49;;;;;;;10.73;7.00;;;6.40;99.90;;;;;;4905736;29;20448;-72
2023/01/17 12:20:23;;;;;;;9.53;6.07;;;6.50;99.90;;;;;;4902258;29;20527;-72
2023/01/17 12:23:18;;;;;;;10.70;5.60;;;6.50;99.90;;;;;;4903084;29;20515;-71
2023/01/17 12:25:58;;;;;;;14.00;6.00;;;6.60;99.90;;;;;;4898310;29;20496;-72
2023/01/17 12:29:09;;;;;;;10.67;6.30;;;6.60;99.90;;;;;;4899463;29;20440;-73
2023/01/17 12:31:50;;;;;;;9.17;6.23;;;6.60;99.90;;;;;;4901338;29;20559;-71
2023/01/17 12:34:42;;;;;;;10.00;5.60;;;6.60;99.90;;;;;;4902668;29;20482;-71
2023/01/17 12:37:22;;;;;;;10.30;5.57;;;6.80;99.90;;;;;;4905089;29;20494;-71
2023/01/17 12:40:01;;;;;;;11.03;5.60;;;6.80;99.90;;;;;;4907184;29;20439;-71
2023/01/17 12:42:34;;;;;;;12.00;5.20;;;6.80;99.90;;;;;;4908484;29;20501;-72
2023/01/17 12:45:09;;;;;;;12.13;6.10;;;6.70;99.90;;;;;;4910253;29;20794;-72
2023/01/17 12:47:41;;;;;;;13.33;8.63;;;6.70;99.90;;;;;;4911644;29;20942;-72
2023/01/17 12:50:25;;;;;;;7.53;5.80;;;6.70;99.90;;;;;;4899898;29;20928;-71
2023/01/17 12:53:18;;;;;;;8.60;5.20;;;6.70;99.90;;;;;;4897644;29;20436;-71
2023/01/17 12:56:00;;;;;;;16.53;6.67;;;6.70;99.90;;;;;;4900351;29;20447;-71
2023/01/17 12:58:33;;;;;;;17.37;5.87;;;6.80;99.90;;;;;;4901459;29;20452;-72
2023/01/17 13:01:04;;;;;;;13.27;6.70;;;6.80;99.90;;;;;;4903862;29;20435;-70
2023/01/17 13:03:38;;;;;;;16.20;6.10;;;6.90;99.90;;;;;;4905594;29;20532;-72
2023/01/17 13:06:06;;;;;;;13.80;5.90;;;7.00;99.90;;;;;;4904935;29;20483;-71
2023/01/17 13:08:48;;;;;;;12.80;5.60;;;7.00;99.90;;;;;;4906656;29;20963;-72
2023/01/17 13:11:22;;;;;;;12.10;5.50;;;7.20;99.90;;;;;;4903961;29;20439;-71
2023/01/17 13:13:50;;;;;;;9.70;5.27;;;7.30;99.90;;;;;;4907506;29;20792;-71
2023/01/17 13:16:33;;;;;;;8.20;5.37;;;7.50;99.90;;;;;;4902283;29;20468;-71
2023/01/17 13:19:16;;;;;;;7.00;5.60;;;7.70;99.90;;;;;;4904187;29;20469;-71
2023/01/17 13:21:41;;;;;;;12.93;5.20;;;7.90;99.90;;;;;;4896645;29;20476;-71
2023/01/17 13:24:21;;;;;;;8.30;4.60;;;8.10;99.90;;;;;;4898869;29;20504;-72
2023/01/17 13:26:55;;;;;;;5.37;4.50;;;8.20;99.90;;;;;;4910235;29;20214;-71
2023/01/17 13:29:35;;;;;;;7.93;4.27;;;8.20;99.90;;;;;;4902088;29;20441;-71
2023/01/17 13:32:29;;;;;;;8.63;5.67;;;8.40;99.90;;;;;;4907639;29;20879;-72
2023/01/17 13:35:20;;;;;;;7.45;4.40;;;8.40;99.90;;;;;;4905111;29;20785;-73
2023/01/17 13:37:51;;;;;;;8.03;3.53;;;8.50;99.90;;;;;;4903648;29;20180;-73
2023/01/17 13:40:35;;;;;;;10.00;4.20;;;8.60;99.90;;;;;;4905427;29;20448;-73
2023/01/17 13:43:04;;;;;;;10.03;4.93;;;8.50;99.90;;;;;;4901889;29;20975;-74
2023/01/17 13:45:30;;;;;;;9.93;4.00;;;8.50;99.90;;;;;;4900512;29;20523;-73
2023/01/17 13:48:11;;;;;;;7.30;3.50;;;8.40;99.90;;;;;;4903289;29;20480;-73
2023/01/17 13:50:40;;;;;;;8.33;4.00;;;8.30;99.90;;;;;;4912949;29;20431;-73
2023/01/17 13:53:44;;;;;;;9.13;3.70;;;8.30;99.90;;;;;;4911107;29;20893;-73
2023/01/17 13:56:26;;;;;;;7.20;4.33;;;8.20;99.90;;;;;;4901514;29;20439;-73
2023/01/17 13:59:01;;;;;;;8.30;4.00;;;8.10;99.90;;;;;;4906587;29;20446;-73
2023/01/17 14:01:38;;;;;;;6.00;3.10;;;8.10;99.90;;;;;;4905675;29;20463;-74
2023/01/17 14:04:08;;;;;;;6.03;2.93;;;8.00;99.90;;;;;;4906735;29;20432;-74
2023/01/17 14:06:34;;;;;;;10.63;3.57;;;7.90;99.90;;;;;;4907162;29;20470;-73
2023/01/17 14:09:02;;;;;;;12.70;4.80;;;7.70;99.90;;;;;;4886869;29;20445;-73
2023/01/17 14:11:32;;;;;;;3.93;3.53;;;7.70;99.90;;;;;;4902547;29;20189;-73
2023/01/17 14:14:36;;;;;;;8.83;4.40;;;7.60;99.90;;;;;;4898837;29;20437;-74
2023/01/17 14:17:46;;;;;;;8.07;3.47;;;7.50;99.90;;;;;;4898833;29;20448;-73
2023/01/17 14:20:14;;;;;;;11.50;4.03;;;7.40;99.90;;;;;;4900500;29;20988;-74
2023/01/17 14:22:52;;;;;;;10.87;4.70;;;7.30;99.90;;;;;;4900810;29;20483;-75
2023/01/17 14:25:26;;;;;;;6.03;3.17;;;7.20;99.90;;;;;;4908635;29;20440;-76
2023/01/17 14:28:21;;;;;;;8.17;3.53;;;7.10;99.90;;;;;;4907372;29;20442;-75
2023/01/17 14:30:53;;;;;;;9.43;3.10;;;7.00;99.90;;;;;;4906430;29;20505;-75
2023/01/17 14:33:26;;;;;;;11.37;4.27;;;6.90;99.90;;;;;;4909776;29;20448;-77
2023/01/17 14:35:57;;;;;;;6.50;3.30;;;6.90;99.90;;;;;;4887101;29;20569;-77
2023/01/17 14:38:28;;;;;;;8.83;4.33;;;6.90;99.90;;;;;;4902347;29;20499;-77
2023/01/17 14:41:06;;;;;;;7.60;3.47;;;6.90;99.90;;;;;;4902092;29;20514;-77
2023/01/17 14:43:34;;;;;;;8.33;4.37;;;6.80;99.90;;;;;;4898937;29;20464;-77
2023/01/17 14:46:20;;;;;;;10.93;5.03;;;6.70;99.90;;;;;;4903137;29;20824;-77
2023/01/17 14:48:46;;;;;;;11.50;3.80;;;6.70;99.90;;;;;;4911009;29;20576;-76
2023/01/17 14:51:17;;;;;;;15.53;4.77;;;6.70;99.90;;;;;;4903049;29;20436;-77
2023/01/17 14:53:57;;;;;;;9.90;3.93;;;6.70;99.90;;;;;;4907212;29;20439;-77
2023/01/17 14:56:25;;;;;;;13.33;4.10;;;6.70;99.90;;;;;;4909071;29;20881;-78
2023/01/17 14:59:15;;;;;;;14.57;4.73;;;6.70;99.90;;;;;;4908033;29;20552;-78
2023/01/17 15:01:52;;;;;;;9.83;5.20;;;6.70;99.90;;;;;;4909389;29;20468;-77
2023/01/17 15:04:26;;;;;;;9.90;4.13;;;6.60;99.90;;;;;;4903719;29;20779;-81
2023/01/17 15:06:54;;;;;;;15.73;4.47;;;6.50;99.90;;;;;;4904452;29;20464;-74
2023/01/17 15:09:22;;;;;;;9.53;4.03;;;6.50;99.90;;;;;;4898914;29;20448;-78
2023/01/17 15:11:51;;;;;;;7.47;4.77;;;6.50;99.90;;;;;;4899070;29;20424;-78
2023/01/17 15:14:23;;;;;;;7.23;4.27;;;6.50;99.90;;;;;;4906443;29;20868;-76
2023/01/17 15:16:50;;;;;;;7.87;3.80;;;6.40;99.90;;;;;;4904311;29;20463;-77
2023/01/17 15:19:16;;;;;;;10.20;6.50;;;6.50;99.90;;;;;;4905861;29;20966;-77
2023/01/17 15:21:44;;;;;;;8.67;4.07;;;6.50;99.90;;;;;;4907441;29;20468;-77
2023/01/17 15:24:13;;;;;;;7.60;3.97;;;6.40;99.90;;;;;;4909817;29;20440;-78
2023/01/17 15:26:42;;;;;;;14.23;5.30;;;6.40;99.90;;;;;;4908209;29;20835;-76
2023/01/17 15:29:14;;;;;;;14.87;4.90;;;6.30;99.90;;;;;;4905832;29;20836;-79
2023/01/17 15:31:46;;;;;;;8.80;4.23;;;6.30;99.90;;;;;;4903373;29;20471;-79
2023/01/17 15:34:23;;;;;;;5.43;4.27;;;6.30;99.90;;;;;;4903854;29;20444;-76
2023/01/17 15:36:48;;;;;;;9.27;4.27;;;6.20;99.90;;;;;;4899998;29;20436;-78
2023/01/17 15:39:22;;;;;;;6.60;4.23;;;6.20;99.90;;;;;;4900621;29;20804;-80
2023/01/17 15:41:52;;;;;;;7.23;3.27;;;6.10;99.90;;;;;;4903946;29;20493;-78
2023/01/17 15:44:40;;;;;;;10.43;5.77;;;6.00;99.90;;;;;;4908380;29;20430;-78
2023/01/17 15:47:29;;;;;;;12.90;5.83;;;5.90;99.90;;;;;;4907165;29;20516;-78
2023/01/17 15:49:55;;;;;;;8.17;4.80;;;5.80;99.90;;;;;;4909525;29;20464;-78
2023/01/17 15:52:21;;;;;;;9.87;4.80;;;5.70;99.90;;;;;;4910249;29;20475;-82
2023/01/17 15:54:52;;;;;;;11.10;5.50;;;5.60;99.90;;;;;;4906320;29;20476;-82
2023/01/17 15:57:23;;;;;;;5.60;4.70;;;5.60;99.90;;;;;;4904169;29;20671;-82
2023/01/17 16:00:04;;;;;;;9.63;4.70;;;5.60;99.90;;;;;;4907266;29;20440;-79
2023/01/17 16:02:57;;;;;;;12.30;5.57;;;5.40;99.90;;;;;;4901623;29;20555;-74
2023/01/17 16:05:26;;;;;;;11.30;6.00;;;5.30;99.90;;;;;;4896112;29;20436;-76
2023/01/17 16:08:03;;;;;;;10.43;5.13;;;5.20;99.90;;;;;;4901307;29;20511;-76
2023/01/17 16:10:35;;;;;;;9.70;5.40;;;5.10;99.90;;;;;;4912295;29;20446;-76
2023/01/17 16:13:02;;;;;;;7.47;5.40;;;4.90;99.90;;;;;;4904149;29;20440;-79
2023/01/17 16:15:28;;;;;;;11.47;5.77;;;4.90;99.90;;;;;;4904980;29;20458;-77
2023/01/17 16:18:16;;;;;;;7.03;6.07;;;4.80;99.90;;;;;;4907565;29;20447;-80
2023/01/17 16:20:53;;;;;;;16.70;6.83;;;4.80;99.90;;;;;;4905533;29;20443;-80
2023/01/17 16:23:22;;;;;;;18.67;8.10;;;4.70;99.90;;;;;;4902369;29;20491;-82
2023/01/17 16:25:48;;;;;;;14.97;5.83;;;4.70;99.90;;;;;;4906871;29;20440;-78
2023/01/17 16:28:13;;;;;;;7.60;5.50;;;4.70;99.90;;;;;;4899875;29;20814;-78
2023/01/17 16:30:39;;;;;;;13.73;6.60;;;4.70;99.90;;;;;;4897780;29;20241;-77
2023/01/17 16:33:04;;;;;;;13.03;6.60;;;4.70;99.90;;;;;;4898340;29;20599;-75
2023/01/17 16:35:32;;;;;;;9.83;6.57;;;4.70;99.90;;;;;;4908071;29;20558;-79
2023/01/17 16:38:01;;;;;;;13.87;6.37;;;4.60;99.90;;;;;;4911935;29;20185;-78
2023/01/17 16:40:29;;;;;;;10.20;6.80;;;4.60;99.90;;;;;;4908590;29;20503;-77
2023/01/17 16:42:55;;;;;;;9.70;7.10;;;4.60;99.90;;;;;;4907015;29;20482;-75
2023/01/17 16:45:22;;;;;;;13.15;6.35;;;4.50;99.90;;;;;;4904628;29;20436;-73
2023/01/17 16:47:48;;;;;;;13.07;6.87;;;4.40;99.90;;;;;;4906199;29;20644;-74
2023/01/17 16:50:16;;;;;;;9.93;6.23;;;4.40;99.90;;;;;;4902332;29;20462;-74
2023/01/17 16:52:41;;;;;;;9.37;5.90;;;4.40;99.90;;;;;;4902475;29;20704;-73
2023/01/17 16:55:11;;;;;;;12.73;6.60;;;4.40;99.90;;;;;;4904470;29;20523;-74
2023/01/17 16:57:37;;;;;;;10.73;7.80;;;4.30;99.90;;;;;;4898002;29;20195;-74
2023/01/17 17:00:04;;;;;;;16.23;7.80;;;4.30;99.90;;;;;;4893158;29;20455;-75
2023/01/17 17:02:29;;;;;;;9.60;7.00;;;4.30;99.90;;;;;;4893877;29;20484;-75
2023/01/17 17:04:55;;;;;;;11.50;6.57;;;4.20;99.90;;;;;;4899402;29;20540;-74
2023/01/17 17:07:21;;;;;;;17.40;7.10;;;4.10;99.90;;;;;;4903554;29;20195;-74
2023/01/17 17:09:46;;;;;;;24.93;7.40;;;4.10;99.90;;;;;;4909565;29;20711;-73
2023/01/17 17:12:12;;;;;;;13.70;7.67;;;4.00;99.90;;;;;;4906295;29;20282;-75
2023/01/17 17:14:38;;;;;;;11.40;7.00;;;4.00;99.90;;;;;;4907976;29;20191;-72
2023/01/17 17:17:03;;;;;;;10.87;8.17;;;3.90;99.90;;;;;;4909372;29;20219;-73
2023/01/17 17:19:29;;;;;;;9.70;7.60;;;3.90;99.90;;;;;;4900959;29;20919;-73
2023/01/17 17:21:58;;;;;;;13.93;7.63;;;4.00;99.90;;;;;;4902645;29;20249;-73
2023/01/17 17:24:24;;;;;;;14.73;9.00;;;3.90;99.90;;;;;;4901245;29;20277;-72
2023/01/17 17:26:49;;;;;;;20.93;7.77;;;3.80;99.90;;;;;;4896721;29;20523;-74
2023/01/17 17:29:15;;;;;;;13.53;7.37;;;3.80;99.90;;;;;;4894715;29;20602;-72
2023/01/17 17:31:42;;;;;;;18.17;7.57;;;3.70;99.90;;;;;;4899131;29;20834;-71
2023/01/17 17:34:10;;;;;;;26.60;9.87;;;3.70;99.90;;;;;;4903377;29;20517;-70
2023/01/17 17:36:36;;;;;;;10.17;7.97;;;3.70;99.90;;;;;;4906602;29;20447;-71
2023/01/17 17:39:03;;;;;;;15.80;8.63;;;3.70;99.90;;;;;;4904729;29;20475;-72
2023/01/17 17:41:33;;;;;;;12.93;8.50;;;3.70;99.90;;;;;;4907054;29;20485;-72
2023/01/17 17:44:01;;;;;;;11.07;8.00;;;3.70;99.90;;;;;;4905747;29;20479;-72
2023/01/17 17:46:28;;;;;;;13.30;9.07;;;3.70;99.90;;;;;;4904458;29;21063;-72
2023/01/17 17:48:54;;;;;;;16.13;9.67;;;3.60;99.90;;;;;;4902126;29;20446;-73
2023/01/17 17:51:40;;;;;;;13.07;9.57;;;3.70;99.90;;;;;;4900970;29;20438;-73
2023/01/17 17:54:09;;;;;;;16.67;8.93;;;3.70;99.90;;;;;;4897323;29;20441;-73
2023/01/17 17:56:35;;;;;;;15.57;8.63;;;3.60;99.90;;;;;;4895478;29;20438;-73
2023/01/17 17:59:02;;;;;;;17.00;8.90;;;3.60;99.90;;;;;;4901401;29;20445;-72
2023/01/17 18:01:28;;;;;;;14.20;9.33;;;3.60;99.90;;;;;;4902991;29;20487;-72
2023/01/17 18:03:55;;;;;;;12.40;8.97;;;3.60;99.90;;;;;;4906508;29;20441;-72
2023/01/17 18:06:22;;;;;;;17.10;9.77;;;3.60;99.90;;;;;;4906000;29;20178;-72
2023/01/17 18:08:50;;;;;;;15.47;9.40;;;3.60;99.90;;;;;;4906902;29;20441;-73
2023/01/17 18:11:19;;;;;;;16.23;9.43;;;3.50;99.90;;;;;;4905225;29;20445;-72
2023/01/17 18:13:51;;;;;;;20.87;10.27;;;3.50;99.90;;;;;;4904753;29;20495;-72
2023/01/17 18:16:25;;;;;;;18.43;11.03;;;3.50;99.90;;;;;;4901982;29;20481;-72
2023/01/17 18:18:53;;;;;;;16.97;9.47;;;3.50;99.90;;;;;;4897987;29;20483;-72
2023/01/17 18:21:24;;;;;;;12.47;9.90;;;3.50;99.90;;;;;;4896493;29;20935;-70
2023/01/17 18:23:55;;;;;;;17.40;10.77;;;3.50;99.90;;;;;;4897775;29;20519;-71
2023/01/17 18:26:23;;;;;;;13.60;8.10;;;3.40;99.90;;;;;;4899268;29;20435;-71
2023/01/17 18:28:51;;;;;;;12.03;9.40;;;3.40;99.90;;;;;;4901335;29;20439;-72
2023/01/17 18:31:16;;;;;;;14.90;9.30;;;3.40;99.90;;;;;;4902495;29;20992;-70
2023/01/17 18:33:42;;;;;;;17.00;11.47;;;3.30;99.90;;;;;;4904338;29;20504;-70